Albert, Texas
Current Conditions -  °F | °C
As of 2:35 AM on Friday 31 Oct 2014 (Local Time) from KT82 Reporting Station
Thunderstorm Thunderstorm  
Wind Chill: 64°   Ceiling: 500
Heat Index: 64°   Visibility: 2mi
Dew Point: 63°   Wind: 3mph
Humidity: 96%   Direction: 350°N
Pressure: 30.18"   Gusts: NA
Location:  30.2109°N, 98.6562°W
Report Text: KT82 310735Z AUTO 35003KT 2SM +TSRA BKN005 OVC009 18/17 A3018 RMK AO2 LTG DSNT ALQS P0039 T01760170
Loading
Personal Weather Stations






























Interactive Weather Map
Tropical Storm Tracking
New forecast layout! Learn more

10-Day Weather Forecast

Advertisements
Track Severe Weather on mobile